Terminal Aerodrome Forecast
Issued by NWS Mt. Holly, NJ

Home | Current Version | Previous Version | Text Only | Print | Product List | Glossary On
Versions: 1 2 3 4 5 6 7 8 9 10 11 12 13 14 15 16 17 18 19 20
000
FTUS41 KPHI 312100 AAB
TAFACY
TAF AMD
KACY 312103Z 3121/0118 01010KT P6SM BKN040 OVC060
     FM010200 03010KT P6SM OVC025
     FM010500 02010G20KT 5SM -RA OVC012
      TEMPO 0111/0115 3SM RA BR OVC007
     FM011500 03015G28KT 5SM -RA OVC015=

USA.gov is the U.S. government's official web portal to all federal, state and local government web resources and services.